27 de maio de 2022

Hora Código Clima Temp. Visibilidade Tecto Vento METAR/SPECI
9:00 da tarde
V
77 °F 6¼ mi+ - 140° 140° 10 kt METAR AYPY 271100Z 14010KT 9999 SCT050 25/22 Q1011
8:00 da tarde
V
79 °F 6¼ mi+ - 140° 140° 5 - 15 kt METAR AYPY 271000Z 14005G15KT 9999 SCT050 26/23 Q1010
7:00 da tarde
V
79 °F 6¼ mi+ - 160° 160° 10 - 15 kt METAR AYPY 270900Z 16010G15KT 9999 SCT050 26/22 Q1010=
6:00 da tarde
V
81 °F 6¼ mi+ - 160° 160° 10 - 20 kt METAR AYPY 270800Z 16010G20KT 9999 FEW050 27/23 Q1009
5:00 da tarde
V
82 °F 6¼ mi+ - 160° 160° 10 - 20 kt METAR AYPY 270700Z 16010G20KT 9999 FEW050 HZ 28/23 Q1008
4:00 da tarde
V
84 °F 6¼ mi+ - 160° 160° 15 - 25 kt METAR AYPY 270600Z 16015G25KT 9999 HZ SCT040 29/23 Q1008
3:00 da tarde
V
86 °F 6¼ mi+ - 160° 160° 15 - 25 kt METAR AYPY 270500Z 16015G25KT 9999 HZ SCT035 30/23 Q1008
2:00 da tarde
V
86 °F 6¼ mi+ - 160° 160° 15 - 20 kt METAR AYPY 270400Z 16015G20KT 9999 HZ SCT040 30/23 Q1008
1:00 da tarde
V
88 °F 6¼ mi+ - 170° 170° 10 - 20 kt METAR AYPY 270300Z 17010G20KT 9999 HZ SCT030 31/23 Q1009
11:00 da manhã
V
86 °F 6¼ mi+ - 140° 140° 10 - 15 kt METAR AYPY 270100Z 14010G15KT 9999 HZ FEW040 30/22 Q1011
10:00 da manhã
V
86 °F 6¼ mi+ - 170° 170° 10 kt METAR AYPY 270000Z 17010KT 9999 HZ SKC 30/22 Q1011
9:00 da manhã
V
82 °F 6¼ mi+ - Var Var 3 kt METAR AYPY 262300Z VRB03KT 9999 HZ FEW050 28/22 Q1011
8:00 da manhã
V
77 °F 6¼ mi+ - Var Var 3 kt METAR AYPY 262200Z VRB03KT 9999 HZ FEW050 25/22 Q1011
7:00 da manhã
V
73 °F 6¼ mi+ - Var 000° 0 kt METAR AYPY 262100Z 00000KT 9999 HZ FEW050 23/22 Q1010
6:00 da manhã
V
72 °F 6¼ mi+ - Var Var 3 kt METAR AYPY 262000Z VRB03KT 9999 FEW050 22/24 Q1009
5:00 da manhã
V
72 °F 6¼ mi+ - Var Var 3 kt METAR AYPY 261900Z VRB03KT 9999 FEW050 22/22 Q1009
4:00 da manhã
V
72 °F 6¼ mi+ - Var Var 3 kt METAR AYPY 261800Z VRB03KT 9999 FEW050 22/21 Q1009
3:00 da manhã
V
73 °F 6¼ mi+ - Var Var 3 kt METAR AYPY 261700Z VRB03KT 9999 FEW050 23/22 Q1009
2:00 da manhã
V
73 °F 6¼ mi+ - 300° 300° 5 kt METAR AYPY 261600Z 30005KT 9999 FEW050 23/22 Q1010
1:00 da manhã
V
73 °F 6¼ mi+ - 300° 300° 5 kt METAR AYPY 261500Z 30005KT 9999 FEW050 23/22 Q1010
12:00 da manhã
V
75 °F 6¼ mi+ - 330° 330° 5 kt METAR AYPY 261400Z 33005KT 9999 FEW050 24/23 Q1011

26 de maio de 2022

Hora Código Clima Temp. Visibilidade Tecto Vento METAR/SPECI
11:00 da tarde
V
77 °F 6¼ mi+ - Var Var 3 kt METAR AYPY 261300Z VRB03KT 9999 FEW080 25/23 Q1011
10:00 da tarde
V
77 °F 6¼ mi+ - Var Var 3 kt METAR AYPY 261200Z VRB03KT 9999 SCT080 25/23 Q1012
9:00 da tarde
V
79 °F 6¼ mi+ - 110° 110° 10 kt METAR AYPY 261100Z 11010KT 9999 SCT100 26/23 Q1011
8:00 da tarde
V
79 °F 6¼ mi+ 10.000 ft 130° 130° 10 kt METAR AYPY 261000Z 13010KT 9999 SCT080 BKN100 26/23 Q1011
7:00 da tarde
V
81 °F 6¼ mi+ 8.000 ft 170° 170° 10 kt METAR AYPY 260900Z 17010KT 9999 OVC080 27/23 Q1010
6:00 da tarde
V
81 °F 6¼ mi+ - 160° 160° 10 kt METAR AYPY 260800Z 16010KT 9999 FEW020 SCT040 27/23 Q1010
5:00 da tarde
V
82 °F 6¼ mi+ - 150° 150° 10 kt METAR AYPY 260700Z 15010KT 9999 FEW030 SCT080 28/24 Q1009
4:00 da tarde
V
84 °F 6¼ mi+ 8.000 ft 160° 160° 10 kt METAR AYPY 260600Z 16010KT 9999 FEW025 BKN080 29/ 24 Q1008
3:00 da tarde
V
84 °F 6¼ mi+ 8.000 ft Var Var 5 kt METAR AYPY 260500Z VRB05KT 9999 FEW025 BKN080 29/ 24 Q1008
1:00 da tarde
V
81 °F 6¼ mi+ 7.000 ft 320° 320° 10 kt METAR AYPY 260300Z 32010KT 9999 FEW025 BKN070 27/24 Q1010
12:00 da tarde
V
81 °F 6¼ mi+ 4.000 ft 360° 360° 10 kt METAR AYPY 260200Z 36010KT 9999 FEW020 BKN040 27/23 Q1010
11:00 da manhã
V
81 °F 6¼ mi+ 4.000 ft 200° 200° 3 kt METAR AYPY 260100Z 20003KT 9999 FEW020 BKN040 27/24 Q1011
10:00 da manhã
V
77 °F 6¼ mi+ 4.000 ft 100° 100° 3 kt METAR AYPY 260000Z 10003KT 9999 -SHRA FEW020 BKN040 25/23 Q1012
9:00 da manhã
L
75 °F 0 mi 3.000 ft 140° 140° 10 kt METAR AYPY 252300Z 14010KT 8KM SHRA FEW008 SCT015 OVC030 24/23 Q1012
8:00 da manhã
L
73 °F 0 mi 1.500 ft 130° 130° 10 kt METAR AYPY 252200Z 13010KT 4000M SHRA SCT007 BKN015 OVC030 23/23 Q1011
7:30 da manhã
L
73 °F 0 mi 700 ft 130° 130° 5 - 15 kt METAR AYPY 252130Z 13005G15KT 4000M SHRA BKN007 OVC020 23/23 Q1011
7:00 da manhã
L
73 °F 0 mi 700 ft 160° 160° 5 - 15 kt METAR AYPY 252100Z 16005G15KT 3000M +SHRA BKN007 OVC020 23/23 Q1011
6:00 da manhã
V
75 °F 6¼ mi+ 4.000 ft 300° 300° 5 kt METAR AYPY 252000Z 30005KT 9999 SHRA FEW020 BKN040 24/24 Q1010
5:00 da manhã
V
75 °F 6¼ mi+ - 360° 360° 5 kt METAR AYPY 251900Z 36005KT 9999 FEW020 SCT050 24/24 Q1009
4:00 da manhã
V
75 °F 6¼ mi+ - 320° 320° 5 kt METAR AYPY 251800Z 32005KT 9999 SCT050 24/24 Q1008
2:00 da manhã
V
77 °F 6¼ mi+ - 330° 330° 5 kt METAR AYPY 251600Z 33005KT 9999 FEW020 SCT050 25/24 Q1009
1:00 da manhã
V
77 °F 6¼ mi+ - 320° 320° 5 kt METAR AYPY 251500Z 32005KT 9999 SCT050 25/24 Q1009

25 de maio de 2022

Hora Código Clima Temp. Visibilidade Tecto Vento METAR/SPECI
11:00 da tarde
V
79 °F 6¼ mi+ - Var Var 3 kt METAR AYPY 251300Z VRB03KT 9999 SCT080 26/24 Q1010
Dados mais antigos

Baixe nosso aplicativo

Fácil acesso a todas as condições meteorológicas da aviação no seu celular e no seu tablet.
Com muitas características não disponíveis no site, como suporte offline e uma lista pessoal de aeroportos.

Nós e terceiros acompanhamos seu comportamento na internet em nosso site com cookies. Se você continuar, nós assumimos que você concorda com nossa política de cookies. Saiba mais